createdAt,value
2023-04-22T00:01:20.750Z,99.90
2023-04-22T00:03:48.929Z,99.90
2023-04-22T00:06:17.265Z,99.90
2023-04-22T00:08:45.433Z,99.90
2023-04-22T00:11:13.536Z,99.90
2023-04-22T00:13:41.692Z,99.90
2023-04-22T00:16:09.800Z,99.90
2023-04-22T00:18:37.939Z,99.90
2023-04-22T00:21:06.261Z,99.90
2023-04-22T00:23:34.319Z,99.90
2023-04-22T00:26:02.763Z,99.90
2023-04-22T00:28:30.891Z,99.90
2023-04-22T00:31:00.165Z,99.90
2023-04-22T00:33:28.300Z,99.90
2023-04-22T00:35:56.670Z,99.90
2023-04-22T00:38:24.878Z,99.90
2023-04-22T00:40:52.916Z,99.90
2023-04-22T00:43:20.949Z,99.90
2023-04-22T00:45:50.310Z,99.90
2023-04-22T00:48:18.506Z,99.90
2023-04-22T00:50:46.544Z,99.90
2023-04-22T00:53:14.663Z,99.90
2023-04-22T00:55:45.471Z,99.90
2023-04-22T00:58:21.398Z,99.90
2023-04-22T01:00:53.038Z,99.90
2023-04-22T01:03:22.022Z,99.90
2023-04-22T01:05:50.711Z,99.90
2023-04-22T01:08:19.002Z,99.90
2023-04-22T01:10:47.103Z,99.90
2023-04-22T01:13:15.194Z,99.90
2023-04-22T01:15:43.332Z,99.90
2023-04-22T01:18:11.563Z,99.90
2023-04-22T01:20:39.635Z,99.90
2023-04-22T01:23:11.521Z,99.90
2023-04-22T01:25:39.795Z,99.90
2023-04-22T01:28:08.079Z,99.90
2023-04-22T01:30:36.183Z,99.90
2023-04-22T01:33:04.296Z,99.90
2023-04-22T01:35:38.054Z,99.90
2023-04-22T01:38:07.293Z,99.90
2023-04-22T01:40:36.465Z,99.90
2023-04-22T01:43:04.869Z,99.90
2023-04-22T01:45:34.740Z,99.90
2023-04-22T01:48:02.958Z,99.90
2023-04-22T01:50:31.098Z,99.90
2023-04-22T01:52:59.160Z,99.90
2023-04-22T01:55:27.349Z,99.90
2023-04-22T01:57:55.379Z,99.90
2023-04-22T02:00:25.345Z,99.90
2023-04-22T02:02:53.598Z,99.90
2023-04-22T02:05:21.801Z,99.90
2023-04-22T02:07:53.403Z,99.90
2023-04-22T02:10:21.963Z,99.90
2023-04-22T02:12:50.017Z,99.90
2023-04-22T02:15:18.188Z,99.90
2023-04-22T02:17:46.397Z,99.90
2023-04-22T02:20:14.628Z,99.90
2023-04-22T02:22:43.485Z,99.90
2023-04-22T02:25:15.384Z,99.90
2023-04-22T02:27:43.823Z,99.90
2023-04-22T02:30:15.440Z,99.90
2023-04-22T02:32:43.622Z,99.90
2023-04-22T02:35:12.732Z,99.90
2023-04-22T02:37:41.149Z,99.90
2023-04-22T02:40:10.115Z,99.90
2023-04-22T02:42:38.226Z,99.90
2023-04-22T02:45:06.644Z,99.90
2023-04-22T02:47:34.876Z,99.90
2023-04-22T02:50:02.969Z,99.90
2023-04-22T02:52:31.273Z,99.90
2023-04-22T02:54:59.415Z,99.90
2023-04-22T02:57:27.721Z,99.90
2023-04-22T02:59:55.913Z,99.90
2023-04-22T03:02:25.432Z,99.90
2023-04-22T03:05:14.590Z,99.90
2023-04-22T03:07:42.819Z,99.90
2023-04-22T03:10:10.913Z,99.90
2023-04-22T03:12:39.010Z,99.90
2023-04-22T03:15:07.522Z,99.90
2023-04-22T03:17:37.223Z,99.90
2023-04-22T03:20:10.334Z,99.90
2023-04-22T03:22:38.398Z,99.90
2023-04-22T03:25:08.580Z,99.90
2023-04-22T03:27:36.856Z,99.90
2023-04-22T03:30:05.849Z,99.90
2023-04-22T03:32:34.050Z,99.90
2023-04-22T03:35:19.012Z,99.90
2023-04-22T03:37:49.379Z,99.90
2023-04-22T03:40:22.181Z,99.90
2023-04-22T03:42:50.851Z,99.90
2023-04-22T03:45:21.491Z,99.90
2023-04-22T03:47:59.316Z,99.90
2023-04-22T03:50:37.363Z,99.90
2023-04-22T03:53:05.991Z,99.90
2023-04-22T03:55:34.598Z,99.90
2023-04-22T03:58:02.759Z,99.90
2023-04-22T04:00:31.688Z,99.90
2023-04-22T04:03:09.658Z,99.90
2023-04-22T04:05:38.795Z,99.90
2023-04-22T04:08:07.089Z,99.90
2023-04-22T04:10:35.867Z,99.90
2023-04-22T04:13:04.907Z,99.90
2023-04-22T04:15:41.220Z,99.90
2023-04-22T04:18:10.992Z,99.90
2023-04-22T04:20:39.136Z,99.90
2023-04-22T04:23:07.419Z,99.90
2023-04-22T04:25:44.127Z,99.90
2023-04-22T04:28:15.346Z,99.90
2023-04-22T04:30:43.655Z,99.90
2023-04-22T04:33:13.521Z,99.90
2023-04-22T04:35:44.746Z,99.90
2023-04-22T04:38:16.632Z,99.90
2023-04-22T04:40:46.878Z,99.90
2023-04-22T04:43:19.950Z,99.90
2023-04-22T04:45:53.445Z,99.90
2023-04-22T04:48:28.616Z,99.90
2023-04-22T04:51:03.714Z,99.90
2023-04-22T04:53:35.694Z,99.90
2023-04-22T04:56:05.864Z,99.90
2023-04-22T04:58:34.195Z,99.90
2023-04-22T05:01:12.381Z,99.90
2023-04-22T05:03:42.483Z,99.90
2023-04-22T05:06:11.936Z,99.90
2023-04-22T05:08:43.057Z,99.90
2023-04-22T05:11:11.823Z,99.90
2023-04-22T05:13:40.261Z,99.90
2023-04-22T05:16:11.521Z,99.90
2023-04-22T05:18:42.431Z,99.90
2023-04-22T05:21:12.531Z,99.90
2023-04-22T05:23:42.176Z,99.90
2023-04-22T05:26:10.962Z,99.90
2023-04-22T05:28:43.202Z,99.90
2023-04-22T05:31:11.779Z,99.90
2023-04-22T05:33:42.755Z,99.90
2023-04-22T05:36:11.774Z,99.90
2023-04-22T05:38:41.150Z,99.90
2023-04-22T05:41:10.055Z,99.90
2023-04-22T05:43:39.234Z,99.90
2023-04-22T05:46:16.287Z,99.90
2023-04-22T05:48:46.709Z,99.90
2023-04-22T05:51:34.361Z,99.90
2023-04-22T05:54:03.584Z,99.90
2023-04-22T05:56:32.193Z,99.90
2023-04-22T05:59:00.871Z,99.90
2023-04-22T06:01:30.701Z,99.90
2023-04-22T06:04:11.664Z,99.90
2023-04-22T06:06:40.895Z,99.90
2023-04-22T06:09:09.448Z,99.90
2023-04-22T06:11:38.005Z,99.90
2023-04-22T06:14:06.776Z,99.90
2023-04-22T06:16:35.744Z,99.90
2023-04-22T06:19:05.765Z,99.90
2023-04-22T06:21:35.351Z,99.90
2023-04-22T06:24:04.313Z,99.90
2023-04-22T06:26:32.671Z,99.90
2023-04-22T06:29:08.882Z,99.90
2023-04-22T06:31:39.987Z,99.90
2023-04-22T06:34:08.500Z,99.90
2023-04-22T06:36:38.897Z,99.90
2023-04-22T06:39:08.828Z,99.90
2023-04-22T06:41:45.644Z,99.90
2023-04-22T06:44:38.663Z,99.90
2023-04-22T06:47:17.166Z,99.90
2023-04-22T06:50:05.759Z,99.90
2023-04-22T06:52:47.527Z,99.90
2023-04-22T06:55:15.776Z,99.90
2023-04-22T06:57:44.076Z,99.90
2023-04-22T07:00:13.005Z,99.90
2023-04-22T07:02:43.283Z,99.90
2023-04-22T07:05:11.681Z,99.90
2023-04-22T07:07:40.903Z,99.90
2023-04-22T07:10:14.052Z,99.90
2023-04-22T07:12:50.396Z,99.90
2023-04-22T07:15:18.738Z,99.90
2023-04-22T07:17:47.077Z,99.90
2023-04-22T07:20:15.452Z,99.90
2023-04-22T07:22:43.631Z,99.90
2023-04-22T07:25:12.323Z,99.90
2023-04-22T07:27:40.659Z,99.90
2023-04-22T07:30:09.590Z,99.90
2023-04-22T07:32:38.419Z,99.90
2023-04-22T07:35:07.700Z,99.90
2023-04-22T07:37:35.702Z,99.90
2023-04-22T07:40:03.930Z,99.90
2023-04-22T07:42:32.222Z,99.90
2023-04-22T07:45:00.286Z,99.90
2023-04-22T07:47:28.368Z,99.90
2023-04-22T07:49:56.408Z,99.90
2023-04-22T07:52:24.432Z,99.90
2023-04-22T07:54:52.590Z,99.90
2023-04-22T07:57:23.492Z,99.90
2023-04-22T07:59:51.628Z,99.90
2023-04-22T08:02:19.704Z,99.90
2023-04-22T08:04:48.051Z,99.90
2023-04-22T08:07:31.004Z,99.90
2023-04-22T08:10:01.533Z,99.90
2023-04-22T08:12:29.883Z,99.90
2023-04-22T08:14:59.806Z,99.90
2023-04-22T08:17:27.991Z,99.90
2023-04-22T08:19:56.175Z,99.90
2023-04-22T08:22:25.144Z,99.90
2023-04-22T08:24:53.270Z,99.90
2023-04-22T08:27:22.852Z,99.90
2023-04-22T08:29:51.192Z,99.90
2023-04-22T08:32:21.094Z,99.90
2023-04-22T08:34:51.887Z,99.90
2023-04-22T08:37:22.219Z,99.90
2023-04-22T08:39:53.383Z,99.90
2023-04-22T08:42:22.064Z,99.90
2023-04-22T08:44:50.233Z,99.90
2023-04-22T08:47:19.462Z,99.90
2023-04-22T08:49:47.861Z,99.90
2023-04-22T08:52:16.989Z,99.90
2023-04-22T08:54:45.191Z,99.90
2023-04-22T08:57:13.712Z,99.90
2023-04-22T08:59:42.722Z,99.90
2023-04-22T09:02:15.307Z,99.90
2023-04-22T09:04:44.733Z,99.90
2023-04-22T09:07:13.425Z,99.90
2023-04-22T09:09:41.992Z,99.90
2023-04-22T09:12:11.126Z,99.90
2023-04-22T09:14:39.664Z,99.90
2023-04-22T09:17:07.828Z,99.90
2023-04-22T09:23:47.697Z,99.90
2023-04-22T09:26:16.535Z,99.90
2023-04-22T09:28:55.019Z,99.90
2023-04-22T09:31:23.602Z,99.90
2023-04-22T09:33:55.861Z,99.90
2023-04-22T09:36:35.502Z,99.90
2023-04-22T09:39:08.719Z,99.90
2023-04-22T09:41:38.087Z,99.90
2023-04-22T09:44:06.841Z,99.90
2023-04-22T09:46:36.223Z,99.90
2023-04-22T09:49:04.377Z,99.90
2023-04-22T09:51:35.874Z,99.90
2023-04-22T09:54:10.001Z,99.90
2023-04-22T09:56:44.592Z,99.90
2023-04-22T09:59:13.379Z,99.90
2023-04-22T10:01:42.649Z,99.90
2023-04-22T10:04:11.415Z,99.90
2023-04-22T10:06:39.524Z,99.90
2023-04-22T10:09:09.525Z,99.90
2023-04-22T10:11:38.892Z,99.90
2023-04-22T10:14:07.368Z,99.00
2023-04-22T10:16:36.066Z,99.50
2023-04-22T10:19:05.761Z,99.00
2023-04-22T10:21:34.492Z,99.60
2023-04-22T10:24:02.743Z,97.50
2023-04-22T10:26:41.763Z,98.50
2023-04-22T10:29:12.053Z,98.00
2023-04-22T10:31:40.418Z,97.40
2023-04-22T10:34:15.644Z,96.90
2023-04-22T10:37:02.024Z,97.70
2023-04-22T10:39:30.623Z,97.70
2023-04-22T10:42:07.678Z,97.20
2023-04-22T10:44:52.015Z,97.70
2023-04-22T10:47:46.527Z,96.40
2023-04-22T10:50:25.937Z,97.30
2023-04-22T10:52:59.258Z,97.70
2023-04-22T10:55:27.713Z,96.50
2023-04-22T10:57:55.780Z,96.00
2023-04-22T11:00:41.787Z,95.60
2023-04-22T11:03:19.360Z,94.50
2023-04-22T11:05:47.704Z,93.80
2023-04-22T11:08:19.417Z,93.00
2023-04-22T11:10:48.529Z,94.00
2023-04-22T11:13:17.845Z,93.60
2023-04-22T11:15:47.587Z,94.10
2023-04-22T11:18:18.285Z,94.40
2023-04-22T11:20:46.499Z,92.40
2023-04-22T11:23:18.430Z,91.70
2023-04-22T11:25:49.605Z,92.00
2023-04-22T11:28:21.691Z,91.30
2023-04-22T11:30:52.893Z,90.60
2023-04-22T11:33:21.361Z,91.70
2023-04-22T11:35:50.736Z,90.60
2023-04-22T11:38:18.830Z,91.10
2023-04-22T11:40:47.678Z,89.80
2023-04-22T11:43:16.226Z,84.60
2023-04-22T11:45:44.365Z,84.70
2023-04-22T11:48:12.920Z,84.40
2023-04-22T11:50:41.865Z,85.10
2023-04-22T11:53:20.032Z,88.50
2023-04-22T11:55:49.289Z,88.50
2023-04-22T11:58:18.725Z,84.60
2023-04-22T12:00:47.965Z,86.10
2023-04-22T12:03:16.396Z,86.00
2023-04-22T12:05:47.794Z,85.90
2023-04-22T12:08:17.491Z,84.70
2023-04-22T12:10:53.278Z,83.50
2023-04-22T12:13:26.302Z,84.00
2023-04-22T12:15:55.462Z,83.10
2023-04-22T12:18:40.495Z,81.90
2023-04-22T12:21:12.499Z,81.00
2023-04-22T12:23:50.142Z,82.60
2023-04-22T12:26:19.187Z,83.50
2023-04-22T12:28:47.562Z,84.00
2023-04-22T12:31:15.971Z,83.70
2023-04-22T12:33:44.138Z,83.90
2023-04-22T12:36:13.492Z,83.70
2023-04-22T12:38:41.933Z,85.20
2023-04-22T12:41:10.161Z,83.50
2023-04-22T12:43:39.060Z,86.30
2023-04-22T12:46:08.040Z,85.90
2023-04-22T12:48:37.625Z,86.70
2023-04-22T12:51:06.197Z,88.90
2023-04-22T12:53:34.476Z,90.20
2023-04-22T12:56:02.580Z,91.30
2023-04-22T12:58:30.744Z,92.00
2023-04-22T13:00:58.789Z,91.70
2023-04-22T13:03:27.315Z,91.90
2023-04-22T13:05:55.776Z,90.40
2023-04-22T13:08:23.913Z,91.30
2023-04-22T13:10:51.949Z,90.50
2023-04-22T13:13:20.072Z,90.60
2023-04-22T13:15:48.922Z,87.80
2023-04-22T13:18:18.038Z,87.50
2023-04-22T13:20:47.069Z,88.50
2023-04-22T13:23:15.740Z,88.50
2023-04-22T13:25:43.896Z,88.30
2023-04-22T13:28:12.667Z,88.60
2023-04-22T13:30:41.384Z,90.30
2023-04-22T13:33:09.465Z,90.30
2023-04-22T13:35:38.205Z,88.90
2023-04-22T13:38:07.264Z,87.30
2023-04-22T13:40:35.479Z,86.10
2023-04-22T13:43:08.485Z,89.20
2023-04-22T13:45:40.263Z,86.80
2023-04-22T13:48:08.420Z,86.50
2023-04-22T13:50:36.662Z,88.00
2023-04-22T13:53:06.453Z,85.60
2023-04-22T13:55:34.797Z,85.20
2023-04-22T13:58:02.883Z,88.50
2023-04-22T14:00:31.940Z,87.20
2023-04-22T14:03:00.154Z,88.70
2023-04-22T14:05:28.438Z,85.80
2023-04-22T14:07:57.271Z,83.90
2023-04-22T14:10:28.385Z,82.50
2023-04-22T14:12:56.828Z,80.50
2023-04-22T14:15:25.540Z,81.10
2023-04-22T14:17:57.103Z,80.60
2023-04-22T14:20:26.946Z,81.10
2023-04-22T14:22:54.956Z,81.20
2023-04-22T14:25:23.603Z,81.60
2023-04-22T14:27:51.937Z,83.00
2023-04-22T14:30:21.467Z,81.60
2023-04-22T14:32:49.978Z,80.40
2023-04-22T14:35:19.049Z,80.90
2023-04-22T14:37:47.402Z,77.70
2023-04-22T14:40:15.666Z,75.80
2023-04-22T14:42:44.001Z,77.00
2023-04-22T14:45:12.587Z,77.80
2023-04-22T14:47:40.641Z,78.90
2023-04-22T14:50:10.782Z,81.90
2023-04-22T14:52:38.871Z,78.40
2023-04-22T14:55:15.910Z,78.40
2023-04-22T14:57:53.502Z,80.00
2023-04-22T15:00:21.603Z,81.90
2023-04-22T15:02:50.054Z,81.90
2023-04-22T15:05:18.322Z,82.00
2023-04-22T15:07:46.568Z,80.30
2023-04-22T15:10:15.630Z,79.50
2023-04-22T15:12:44.149Z,79.40
2023-04-22T15:15:15.294Z,80.40
2023-04-22T15:17:44.131Z,81.50
2023-04-22T15:20:12.823Z,79.10
2023-04-22T15:22:42.449Z,78.00
2023-04-22T15:25:11.366Z,78.20
2023-04-22T15:27:40.084Z,78.50
2023-04-22T15:30:08.657Z,78.30
2023-04-22T15:32:37.004Z,80.40
2023-04-22T15:35:05.265Z,79.80
2023-04-22T15:37:33.469Z,82.80
2023-04-22T15:40:01.568Z,83.50
2023-04-22T15:42:29.604Z,83.50
2023-04-22T15:44:59.164Z,84.90
2023-04-22T15:47:28.740Z,84.20
2023-04-22T15:49:59.085Z,84.40
2023-04-22T15:52:27.399Z,86.10
2023-04-22T15:54:55.579Z,85.90
2023-04-22T15:57:23.699Z,86.30
2023-04-22T16:00:02.915Z,85.90
2023-04-22T16:02:44.592Z,86.20
2023-04-22T16:05:15.908Z,87.50
2023-04-22T16:07:45.579Z,88.60
2023-04-22T16:10:13.630Z,87.70
2023-04-22T16:12:42.950Z,87.90
2023-04-22T16:15:11.750Z,88.70
2023-04-22T16:17:39.879Z,90.00
2023-04-22T16:20:08.707Z,88.70
2023-04-22T16:22:36.883Z,88.40
2023-04-22T16:25:05.494Z,89.60
2023-04-22T16:27:33.808Z,90.10
2023-04-22T16:30:02.068Z,90.40
2023-04-22T16:32:30.189Z,90.70
2023-04-22T16:34:58.252Z,90.70
2023-04-22T16:37:26.867Z,90.60
2023-04-22T16:39:54.914Z,90.80
2023-04-22T16:42:23.151Z,90.80
2023-04-22T16:44:52.650Z,91.20
2023-04-22T16:47:21.017Z,90.80
2023-04-22T16:49:49.079Z,90.60
2023-04-22T16:52:17.390Z,90.90
2023-04-22T16:54:45.468Z,91.00
2023-04-22T16:57:13.640Z,91.60
2023-04-22T16:59:42.047Z,92.10
2023-04-22T17:02:10.450Z,93.20
2023-04-22T17:04:38.814Z,94.40
2023-04-22T17:07:06.968Z,93.60
2023-04-22T17:09:35.044Z,94.30
2023-04-22T17:12:03.173Z,94.60
2023-04-22T17:14:31.229Z,94.20
2023-04-22T17:16:59.352Z,94.50
2023-04-22T17:19:27.469Z,94.40
2023-04-22T17:21:55.673Z,95.20
2023-04-22T17:24:25.472Z,96.20
2023-04-22T17:26:53.653Z,96.90
2023-04-22T17:29:22.977Z,97.40
2023-04-22T17:31:51.912Z,98.10
2023-04-22T17:34:20.028Z,99.40
2023-04-22T17:36:48.237Z,99.90
2023-04-22T17:39:16.678Z,99.90
2023-04-22T17:41:45.133Z,99.10
2023-04-22T17:44:13.665Z,97.60
2023-04-22T17:46:43.013Z,97.50
2023-04-22T17:49:11.271Z,97.20
2023-04-22T17:51:39.458Z,96.70
2023-04-22T17:54:08.196Z,97.10
2023-04-22T17:56:40.216Z,97.90
2023-04-22T17:59:15.883Z,99.10
2023-04-22T18:01:46.049Z,99.90
2023-04-22T18:04:14.616Z,99.90
2023-04-22T18:06:42.819Z,99.90
2023-04-22T18:09:10.898Z,99.90
2023-04-22T18:11:39.053Z,99.90
2023-04-22T18:14:07.273Z,99.90
2023-04-22T18:16:35.392Z,99.90
2023-04-22T18:19:05.355Z,99.90
2023-04-22T18:21:34.223Z,99.90
2023-04-22T18:24:04.995Z,99.90
2023-04-22T18:26:33.521Z,99.90
2023-04-22T18:29:01.523Z,99.90
2023-04-22T18:31:29.707Z,99.90
2023-04-22T18:33:57.789Z,99.90
2023-04-22T18:36:25.824Z,99.90
2023-04-22T18:38:53.907Z,99.90
2023-04-22T18:41:22.238Z,99.90
2023-04-22T18:43:50.293Z,99.90
2023-04-22T18:46:19.782Z,99.90
2023-04-22T18:48:47.850Z,99.90
2023-04-22T18:51:16.005Z,99.90
2023-04-22T18:53:44.764Z,99.90
2023-04-22T18:56:12.889Z,99.90
2023-04-22T18:58:40.946Z,99.90
2023-04-22T19:01:09.047Z,99.90
2023-04-22T19:03:37.217Z,99.90
2023-04-22T19:06:05.525Z,99.90
2023-04-22T19:08:33.772Z,99.90
2023-04-22T19:11:02.268Z,99.90
2023-04-22T19:13:30.489Z,99.90
2023-04-22T19:15:58.829Z,99.90
2023-04-22T19:18:27.141Z,99.90
2023-04-22T19:20:55.233Z,99.90
2023-04-22T19:23:23.338Z,99.90
2023-04-22T19:25:51.799Z,99.90
2023-04-22T19:28:19.888Z,99.90
2023-04-22T19:30:48.055Z,99.90
2023-04-22T19:33:16.240Z,99.90
2023-04-22T19:35:44.303Z,99.90
2023-04-22T19:38:12.499Z,99.90
2023-04-22T19:40:40.601Z,99.90
2023-04-22T19:43:08.648Z,99.90
2023-04-22T19:45:42.101Z,99.90
2023-04-22T19:48:13.536Z,99.90
2023-04-22T19:50:43.770Z,99.90
2023-04-22T19:53:12.334Z,99.90
2023-04-22T19:55:40.725Z,99.90
2023-04-22T19:58:08.924Z,99.90
2023-04-22T20:00:37.354Z,99.90
2023-04-22T20:03:05.770Z,99.90
2023-04-22T20:05:34.357Z,99.90
2023-04-22T20:08:03.107Z,99.90
2023-04-22T20:10:31.918Z,99.90
2023-04-22T20:13:00.799Z,99.90
2023-04-22T20:15:29.047Z,99.90
2023-04-22T20:17:57.327Z,99.90
2023-04-22T20:20:25.508Z,99.90
2023-04-22T20:22:54.888Z,99.90
2023-04-22T20:25:24.336Z,99.90
2023-04-22T20:27:52.613Z,99.90
2023-04-22T20:30:20.701Z,99.90
2023-04-22T20:32:48.921Z,99.90
2023-04-22T20:35:17.897Z,99.90
2023-04-22T20:37:47.528Z,99.90
2023-04-22T20:40:16.391Z,99.90
2023-04-22T20:42:44.532Z,99.90
2023-04-22T20:45:17.001Z,99.90
2023-04-22T20:47:45.782Z,99.90
2023-04-22T20:50:14.717Z,99.90
2023-04-22T20:52:42.778Z,99.90
2023-04-22T20:55:10.949Z,99.90
2023-04-22T20:57:39.095Z,99.90
2023-04-22T21:00:11.655Z,99.90
2023-04-22T21:02:40.542Z,99.90
2023-04-22T21:05:08.880Z,99.90
2023-04-22T21:07:39.817Z,99.90
2023-04-22T21:10:13.109Z,99.90
2023-04-22T21:12:43.821Z,99.90
2023-04-22T21:15:12.503Z,99.90
2023-04-22T21:17:48.167Z,99.90
2023-04-22T21:20:16.210Z,99.90
2023-04-22T21:22:45.253Z,99.90
2023-04-22T21:25:18.371Z,99.90
2023-04-22T21:27:47.434Z,99.90
2023-04-22T21:30:15.767Z,99.90
2023-04-22T21:32:44.121Z,99.90
2023-04-22T21:35:12.314Z,99.90
2023-04-22T21:37:40.416Z,99.90
2023-04-22T21:40:10.193Z,99.90
2023-04-22T21:42:38.274Z,99.90
2023-04-22T21:45:06.622Z,99.90
2023-04-22T21:47:34.861Z,99.90
2023-04-22T21:50:02.909Z,99.90
2023-04-22T21:52:31.009Z,99.90
2023-04-22T21:54:59.136Z,99.90
2023-04-22T21:57:27.250Z,99.90
2023-04-22T21:59:55.308Z,99.90
2023-04-22T22:02:23.635Z,99.90
2023-04-22T22:04:52.044Z,99.90
2023-04-22T22:07:20.350Z,99.90
2023-04-22T22:09:48.393Z,99.90
2023-04-22T22:12:17.003Z,99.90
2023-04-22T22:14:45.247Z,99.90
2023-04-22T22:17:13.792Z,99.90
2023-04-22T22:19:43.263Z,99.90
2023-04-22T22:22:11.790Z,99.90
2023-04-22T22:24:40.032Z,99.90
2023-04-22T22:27:09.331Z,99.90
2023-04-22T22:29:37.518Z,99.90
2023-04-22T22:32:05.608Z,99.90
2023-04-22T22:34:33.764Z,99.90
2023-04-22T22:37:02.358Z,99.90
2023-04-22T22:39:30.486Z,99.90
2023-04-22T22:41:59.554Z,99.90
2023-04-22T22:44:27.623Z,99.90
2023-04-22T22:46:55.681Z,99.90
2023-04-22T22:49:26.502Z,99.90
2023-04-22T22:51:54.550Z,99.90
2023-04-22T22:54:25.639Z,99.90
2023-04-22T22:56:55.341Z,99.90
2023-04-22T22:59:23.351Z,99.90
2023-04-22T23:01:51.846Z,99.90
2023-04-22T23:04:20.129Z,99.90
2023-04-22T23:06:48.493Z,99.90
2023-04-22T23:09:20.177Z,99.90
2023-04-22T23:11:53.167Z,99.90
2023-04-22T23:14:21.459Z,99.90
2023-04-22T23:16:49.501Z,99.90
2023-04-22T23:19:18.378Z,99.90
2023-04-22T23:21:47.294Z,99.90
2023-04-22T23:24:16.708Z,99.90
2023-04-22T23:26:47.162Z,99.90
2023-04-22T23:29:15.502Z,99.90
2023-04-22T23:31:44.220Z,99.90
2023-04-22T23:34:12.379Z,99.90
2023-04-22T23:36:40.593Z,99.90
2023-04-22T23:39:10.917Z,99.90
2023-04-22T23:41:38.970Z,99.90
2023-04-22T23:44:07.739Z,99.90
2023-04-22T23:46:36.080Z,99.90
2023-04-22T23:49:04.235Z,99.90
2023-04-22T23:51:32.340Z,99.90
2023-04-22T23:54:00.346Z,99.90
2023-04-22T23:56:28.660Z,99.90
2023-04-22T23:58:57.493Z,99.90
